THY15K KCHA-KATL
Flight info
| Callsign | THY15K |
|---|---|
| Flight time | 0h 25m |
| Altitude | 16000 |
| Route | DCT LEMKE CHPPR1 |
| Aircraft | A321/M-SDE3FGHIRWY/LB1 |
Departure
| Time | 2026-05-03 21:53 |
|---|---|
| Airport | Chattanooga Metropolitan Airport (Lovell Field) (KCHA) |
Arrival
| Time | 2026-05-03 22:19 |
|---|---|
| Airport | Hartsfield Jackson Atlanta International Airport (KATL) |
| Time | Latitude | Longitude | Altitude | Speed | Heading |
|---|---|---|---|---|---|
| 2026-05-03 21:34 | 35.03733 | -85.19837 | 680 ft | 0 kts | 69° |
| 2026-05-03 21:48 | 35.03728 | -85.19852 | 678 ft | 3 kts | 69° |
| 2026-05-03 21:48 | 35.03721 | -85.19874 | 675 ft | 3 kts | 69° |
| 2026-05-03 21:48 | 35.03714 | -85.19895 | 678 ft | 3 kts | 51° |
| 2026-05-03 21:48 | 35.03699 | -85.19911 | 678 ft | 3 kts | 21° |
| 2026-05-03 21:49 | 35.03688 | -85.19916 | 678 ft | 0 kts | 2° |
| 2026-05-03 21:50 | 35.03705 | -85.19916 | 677 ft | 8 kts | 358° |
| 2026-05-03 21:50 | 35.03812 | -85.19924 | 679 ft | 23 kts | 10° |
| 2026-05-03 21:51 | 35.03954 | -85.19878 | 678 ft | 20 kts | 18° |
| 2026-05-03 21:51 | 35.04030 | -85.19864 | 678 ft | 15 kts | 346° |
| 2026-05-03 21:51 | 35.04114 | -85.19925 | 677 ft | 14 kts | 327° |
| 2026-05-03 21:51 | 35.04183 | -85.19990 | 675 ft | 11 kts | 296° |
| 2026-05-03 21:52 | 35.04161 | -85.20058 | 677 ft | 8 kts | 218° |
| 2026-05-03 21:52 | 35.04130 | -85.20071 | 680 ft | 0 kts | 197° |
| 2026-05-03 21:52 | 35.04091 | -85.20086 | 680 ft | 28 kts | 197° |
| 2026-05-03 21:52 | 35.03648 | -85.20246 | 678 ft | 101 kts | 197° |
| 2026-05-03 21:53 | 35.02787 | -85.20551 | 682 ft | 154 kts | 195° |
| 2026-05-03 21:53 | 35.01714 | -85.20905 | 1207 ft | 160 kts | 199° |
| 2026-05-03 21:53 | 35.00650 | -85.21267 | 1967 ft | 160 kts | 200° |
| 2026-05-03 21:53 | 34.99516 | -85.21669 | 2207 ft | 180 kts | 199° |
| 2026-05-03 21:54 | 34.98240 | -85.22137 | 2433 ft | 202 kts | 200° |
| 2026-05-03 21:54 | 34.96819 | -85.22672 | 2604 ft | 225 kts | 199° |
| 2026-05-03 21:54 | 34.95236 | -85.23289 | 2870 ft | 251 kts | 200° |
| 2026-05-03 21:54 | 34.93541 | -85.23952 | 3600 ft | 259 kts | 199° |
| 2026-05-03 21:55 | 34.91809 | -85.24628 | 4378 ft | 264 kts | 200° |
| 2026-05-03 21:55 | 34.90040 | -85.25315 | 4860 ft | 269 kts | 199° |
| 2026-05-03 21:55 | 34.88262 | -85.26010 | 4977 ft | 268 kts | 200° |
| 2026-05-03 21:55 | 34.86474 | -85.26686 | 5269 ft | 271 kts | 194° |
| 2026-05-03 21:56 | 34.84579 | -85.26782 | 5995 ft | 278 kts | 173° |
| 2026-05-03 21:56 | 34.82645 | -85.26421 | 6696 ft | 284 kts | 172° |
| 2026-05-03 21:56 | 34.80684 | -85.26023 | 7370 ft | 288 kts | 171° |
| 2026-05-03 21:56 | 34.78699 | -85.25609 | 8107 ft | 291 kts | 172° |
| 2026-05-03 21:57 | 34.76689 | -85.25190 | 8820 ft | 295 kts | 172° |
| 2026-05-03 21:57 | 34.74681 | -85.24776 | 9497 ft | 299 kts | 172° |
| 2026-05-03 21:57 | 34.72617 | -85.24355 | 10166 ft | 303 kts | 172° |
| 2026-05-03 21:57 | 34.70457 | -85.23919 | 10335 ft | 325 kts | 172° |
| 2026-05-03 21:58 | 34.68144 | -85.23458 | 10461 ft | 347 kts | 172° |
| 2026-05-03 21:58 | 34.65686 | -85.22970 | 10584 ft | 368 kts | 172° |
| 2026-05-03 21:58 | 34.63088 | -85.22456 | 10700 ft | 387 kts | 172° |
| 2026-05-03 21:58 | 34.60367 | -85.21916 | 10845 ft | 403 kts | 172° |
| 2026-05-03 21:59 | 34.57571 | -85.21353 | 11226 ft | 411 kts | 172° |
| 2026-05-03 21:59 | 34.54741 | -85.20778 | 11746 ft | 414 kts | 172° |
| 2026-05-03 21:59 | 34.51886 | -85.20196 | 12308 ft | 417 kts | 172° |
| 2026-05-03 21:59 | 34.49020 | -85.19612 | 12855 ft | 419 kts | 172° |
| 2026-05-03 22:00 | 34.46166 | -85.19033 | 13394 ft | 422 kts | 172° |
| 2026-05-03 22:00 | 34.43265 | -85.18449 | 13922 ft | 425 kts | 173° |
| 2026-05-03 22:00 | 34.40340 | -85.17864 | 14376 ft | 427 kts | 172° |
| 2026-05-03 22:00 | 34.37435 | -85.16964 | 14801 ft | 433 kts | 162° |
| 2026-05-03 22:01 | 34.34672 | -85.15472 | 15259 ft | 439 kts | 153° |
| 2026-05-03 22:01 | 34.32123 | -85.13411 | 15710 ft | 443 kts | 143° |
| 2026-05-03 22:01 | 34.29681 | -85.11112 | 15950 ft | 445 kts | 143° |
| 2026-05-03 22:01 | 34.27235 | -85.08819 | 15989 ft | 445 kts | 144° |
| 2026-05-03 22:02 | 34.24780 | -85.06526 | 15991 ft | 445 kts | 144° |
| 2026-05-03 22:02 | 34.22327 | -85.04241 | 15954 ft | 444 kts | 144° |
| 2026-05-03 22:02 | 34.19898 | -85.01984 | 15404 ft | 438 kts | 144° |
| 2026-05-03 22:02 | 34.17485 | -84.99746 | 14625 ft | 437 kts | 144° |
| 2026-05-03 22:03 | 34.15105 | -84.97542 | 13347 ft | 427 kts | 143° |
| 2026-05-03 22:03 | 34.12799 | -84.95399 | 12128 ft | 419 kts | 143° |
| 2026-05-03 22:03 | 34.10514 | -84.93249 | 11515 ft | 415 kts | 143° |
| 2026-05-03 22:03 | 34.08232 | -84.91082 | 11236 ft | 416 kts | 142° |
| 2026-05-03 22:04 | 34.05972 | -84.88932 | 11049 ft | 414 kts | 142° |
| 2026-05-03 22:04 | 34.03713 | -84.86782 | 10837 ft | 411 kts | 142° |
| 2026-05-03 22:04 | 34.01534 | -84.84711 | 10967 ft | 388 kts | 142° |
| 2026-05-03 22:04 | 33.99464 | -84.82749 | 10991 ft | 368 kts | 143° |
| 2026-05-03 22:05 | 33.97496 | -84.80890 | 11005 ft | 359 kts | 143° |
| 2026-05-03 22:05 | 33.95500 | -84.79013 | 10992 ft | 366 kts | 143° |
| 2026-05-03 22:05 | 33.93490 | -84.77125 | 10992 ft | 367 kts | 143° |
| 2026-05-03 22:05 | 33.91479 | -84.75234 | 10992 ft | 367 kts | 143° |
| 2026-05-03 22:06 | 33.89466 | -84.73345 | 10996 ft | 367 kts | 143° |
| 2026-05-03 22:06 | 33.87468 | -84.71465 | 10994 ft | 357 kts | 143° |
| 2026-05-03 22:06 | 33.85560 | -84.69665 | 10975 ft | 340 kts | 143° |
| 2026-05-03 22:06 | 33.83735 | -84.67944 | 10992 ft | 325 kts | 143° |
| 2026-05-03 22:07 | 33.82018 | -84.66330 | 10990 ft | 309 kts | 143° |
| 2026-05-03 22:07 | 33.80360 | -84.64780 | 10984 ft | 295 kts | 143° |
| 2026-05-03 22:07 | 33.78783 | -84.63306 | 11026 ft | 277 kts | 143° |
| 2026-05-03 22:07 | 33.77299 | -84.61913 | 10989 ft | 266 kts | 143° |
| 2026-05-03 22:08 | 33.75852 | -84.60546 | 10985 ft | 264 kts | 141° |
| 2026-05-03 22:08 | 33.74611 | -84.58921 | 10991 ft | 265 kts | 125° |
| 2026-05-03 22:08 | 33.73753 | -84.56969 | 10996 ft | 265 kts | 109° |
| 2026-05-03 22:08 | 33.73329 | -84.54821 | 10998 ft | 264 kts | 94° |
| 2026-05-03 22:09 | 33.73294 | -84.52623 | 10970 ft | 262 kts | 88° |
| 2026-05-03 22:09 | 33.73300 | -84.50446 | 10641 ft | 261 kts | 88° |
| 2026-05-03 22:09 | 33.73300 | -84.48272 | 10336 ft | 259 kts | 88° |
| 2026-05-03 22:10 | 33.73295 | -84.43995 | 9652 ft | 256 kts | 88° |
| 2026-05-03 22:10 | 33.73294 | -84.41862 | 9306 ft | 254 kts | 88° |
| 2026-05-03 22:10 | 33.73293 | -84.39746 | 8945 ft | 253 kts | 88° |
| 2026-05-03 22:10 | 33.73292 | -84.37643 | 8604 ft | 251 kts | 88° |
| 2026-05-03 22:11 | 33.73292 | -84.35553 | 8244 ft | 249 kts | 88° |
| 2026-05-03 22:11 | 33.73293 | -84.33481 | 7939 ft | 247 kts | 88° |
| 2026-05-03 22:11 | 33.73293 | -84.31426 | 7620 ft | 245 kts | 88° |
| 2026-05-03 22:11 | 33.73293 | -84.29386 | 7292 ft | 243 kts | 88° |
| 2026-05-03 22:12 | 33.73295 | -84.27359 | 6975 ft | 242 kts | 88° |
| 2026-05-03 22:12 | 33.73298 | -84.25345 | 6640 ft | 240 kts | 88° |
| 2026-05-03 22:12 | 33.73300 | -84.23345 | 6312 ft | 238 kts | 88° |
| 2026-05-03 22:12 | 33.73301 | -84.21380 | 5970 ft | 238 kts | 87° |
| 2026-05-03 22:13 | 33.73303 | -84.19398 | 5672 ft | 236 kts | 88° |
| 2026-05-03 22:13 | 33.73228 | -84.17434 | 5316 ft | 237 kts | 102° |
| 2026-05-03 22:13 | 33.72456 | -84.15714 | 5010 ft | 236 kts | 136° |
| 2026-05-03 22:13 | 33.71058 | -84.14758 | 4680 ft | 232 kts | 166° |
| 2026-05-03 22:14 | 33.69461 | -84.14552 | 4395 ft | 231 kts | 186° |
| 2026-05-03 22:14 | 33.67926 | -84.14967 | 4117 ft | 224 kts | 205° |
| 2026-05-03 22:14 | 33.66614 | -84.15931 | 3982 ft | 221 kts | 224° |
| 2026-05-03 22:14 | 33.65642 | -84.17303 | 3985 ft | 219 kts | 242° |
| 2026-05-03 22:15 | 33.65064 | -84.18974 | 3992 ft | 216 kts | 259° |
| 2026-05-03 22:15 | 33.64933 | -84.20751 | 4009 ft | 213 kts | 272° |
| 2026-05-03 22:15 | 33.64937 | -84.22532 | 3956 ft | 211 kts | 272° |
| 2026-05-03 22:15 | 33.64940 | -84.24239 | 3732 ft | 197 kts | 271° |
| 2026-05-03 22:16 | 33.64942 | -84.25842 | 3516 ft | 189 kts | 272° |
| 2026-05-03 22:16 | 33.64945 | -84.27405 | 3255 ft | 184 kts | 272° |
| 2026-05-03 22:16 | 33.64946 | -84.28915 | 3035 ft | 177 kts | 273° |
| 2026-05-03 22:16 | 33.64949 | -84.30392 | 2796 ft | 178 kts | 274° |
| 2026-05-03 22:17 | 33.64950 | -84.31880 | 2549 ft | 178 kts | 273° |
| 2026-05-03 22:17 | 33.64950 | -84.33302 | 2347 ft | 164 kts | 272° |
| 2026-05-03 22:17 | 33.64950 | -84.34608 | 2114 ft | 150 kts | 273° |
| 2026-05-03 22:17 | 33.64951 | -84.35842 | 1911 ft | 147 kts | 274° |
| 2026-05-03 22:18 | 33.64952 | -84.37061 | 1685 ft | 146 kts | 273° |
| 2026-05-03 22:18 | 33.64953 | -84.38282 | 1497 ft | 147 kts | 271° |
| 2026-05-03 22:18 | 33.64956 | -84.39496 | 1251 ft | 144 kts | 272° |
| 2026-05-03 22:18 | 33.64958 | -84.40706 | 1099 ft | 146 kts | 270° |
| 2026-05-03 22:19 | 33.64960 | -84.41888 | 1008 ft | 130 kts | 271° |
| 2026-05-03 22:19 | 33.64960 | -84.42459 | 1013 ft | 39 kts | 266° |
| 2026-05-03 22:19 | 33.64945 | -84.42671 | 1015 ft | 13 kts | 245° |
| 2026-05-03 22:19 | 33.64893 | -84.42755 | 1015 ft | 12 kts | 236° |
| 2026-05-03 22:20 | 33.64836 | -84.42802 | 1017 ft | 8 kts | 195° |